Manomet, MA (02345)

12:47 AM EDT on September 01, 2016 (GMT -0400)
| | Change Station

Elev -9999 ft 0.00 °N, 0.00 °E | Updated

Cloudy
Cloudy
72 °F
Feels Like 72 °F
N
6
Wind Variable Wind from SW
Gusts 10 mph

Today
High -- | Low -- °F
--% Chance of Precip.
Yesterday
High -- | Low -- °F
Precip. -- in
Pressure 29.88 in
Visibility 10.0 miles
Clouds Mostly Cloudy 12000 ft
Dew Point 69 °F
Humidity 90%
Rainfall --
Snow Depth Not available.
6:08 AM 7:14 PM
Waning Crescent, 0% visible
METAR KPYM 010352Z AUTO 19004KT 10SM BKN120 23/21 A2989 RMK AO2 RAB17E35 SLP119 P0000 T02280211
Pressure 29.88 in
Visibility 10.0 miles
Clouds Mostly Cloudy 12000 ft
Dew Point 69 °F
Humidity 90%
Rainfall --
Snow Depth Not available.
6:08 AM 7:14 PM
Waning Crescent, 0% visible
METAR KPYM 010352Z AUTO 19004KT 10SM BKN120 23/21 A2989 RMK AO2 RAB17E35 SLP119 P0000 T02280211

10-Day Weather Forecast

Almanac

Astronomy

Sep. 01, 2016 Rise Set
Actual Time
Civil Twilight
Nautical Twilight
Astronomical Twilight
Moon
Length of Visible Light
Length of Day
Tomorrow will be .
, % of the Moon is Illuminated

Today's Extremes

State Highs State Lows

Community

WunderPhotos

Upload Photos

1,936,313 photos uploaded!

WunderBlog® & News

Nearby

Air Quality

  Air Quality AQ Index Pollutant
Not available.

Snow Depth

Station Depth Elevation

Earthquake Activity

City Distance Mag. Time & Date
Minimum magnitude displayed is 2.5.

Coastal Water Temperatures

Place Temperature

Stations

Nearby Weather Stations

Station Location Temp. Windchill Dew Point Humidity Wind Precip. Elev Updated Type
                   

Watches & Warnings

There are currently no watches in effect.